This is the latest recevied weather packets stored in our database for station/object KA8DUX-2. If no packets are shown the sender has not sent any weather packets the latest 1 day(s).
| Time | Temp. | Humidity | Pressure | Rain* | Wind** | Luminosity | Snow |
|---|---|---|---|---|---|---|---|
| 1778071773 | 6.11° C | 68% | 1011.5 hPa | 0 mm | - | 161 W/m² | - |
| 1778071470 | 6.11° C | 69% | 1011.6 hPa | 0 mm | - | 118 W/m² | - |
| 1778071168 | 5.56° C | 71% | 1011.6 hPa | 0 mm | - | 54 W/m² | - |
| 1778070866 | 5.56° C | 71% | 1011.2 hPa | 0 mm | - | 67 W/m² | - |
| 1778070563 | 5.56° C | 72% | 1011.4 hPa | 0 mm | - | 52 W/m² | - |
| 1778069655 | 5° C | 74% | 1011.2 hPa | 0 mm | - | 68 W/m² | - |
| 1778069352 | 5° C | 74% | 1010.8 hPa | 0 mm | - | 39 W/m² | - |
| 1778067840 | 3.89° C | 77% | 1010.6 hPa | 0 mm | - | 31 W/m² | - |
| 1778067539 | 3.89° C | 77% | 1010.4 hPa | 0 mm | - | 29 W/m² | - |
| 1778065722 | 2.78° C | 82% | 1009.9 hPa | 0 mm | - | 17 W/m² | - |
| 1778065419 | 2.22° C | 83% | 1009.8 hPa | 0 mm | - | 17 W/m² | - |
| 1778065116 | 2.22° C | 84% | 1009.8 hPa | 0 mm | - | 18 W/m² | - |
| 1778064812 | 2.22° C | 84% | 1010 hPa | 0 mm | - | 15 W/m² | - |
| 1778064510 | 2.22° C | 86% | 1009.9 hPa | 0 mm | - | 14 W/m² | - |
| 1778064207 | 1.67° C | 87% | 1010.1 hPa | 0 mm | - | 8 W/m² | - |
| 1778063602 | 1.67° C | 87% | 1010 hPa | 0 mm | - | 3 W/m² | - |
| 1778062997 | 1.67° C | 87% | 1009.8 hPa | 0 mm | - | 0 W/m² | - |
| 1778062390 | 2.22° C | 87% | 1009.9 hPa | 0 mm | - | 0 W/m² | - |
| 1778061181 | 2.22° C | 87% | 1009.7 hPa | 0 mm | - | 0 W/m² | - |
| 1778060878 | 2.22° C | 87% | 1009.7 hPa | 0 mm | - | 0 W/m² | - |
| 1778060576 | 2.22° C | 87% | 1009.5 hPa | 0 mm | - | 0 W/m² | - |
| 1778060274 | 2.22° C | 87% | 1009.6 hPa | 0 mm | - | 0 W/m² | - |
| 1778059971 | 2.22° C | 87% | 1009.4 hPa | 0 mm | - | 0 W/m² | - |
| 1778059669 | 2.22° C | 86% | 1009.4 hPa | 0 mm | - | 0 W/m² | - |
| 1778058761 | 2.22° C | 86% | 1009.2 hPa | 0 mm | - | 0 W/m² | - |
* Rain latest hour (hover to see other rain measurements)
** Current wind speed in m/s (hover to see current wind gust speed)